メインページ
METAR-TAF:

METAR-TAF

空港 :

タバ, エジプト

緯度: 29-35-57N, 経度: 034-46-36E, 海抜: 749m

METAR: 見つかりません

時間: 23:13 (21:13 UTC)

予報

当レポートは4時間13分前の17:00(UTC)に作成
予報は21日の 18時(UTC)から 22日の 24時(UTC)まで有効
北/北西の風 6kt、最大18ktの突風を伴う
視程10km以上
1,500メートル以下は雲なし、積乱雲なし

TAF: HETB 211700Z 2118/2224 34006G18KT CAVOK

4,000以上の空港の気象観測と天気予報(METAR報とTAF報)

利用可能な観測所は地図上に黄色い丸と赤い丸で示す。

丸の上にカーソルを重ねると観測所名を参照できる。

次にクリックすると気象観測と天気予報を参照できる。

マップの切り替え:黒色「×」印の緑ボタンをクリックして拡大、「-」印の緑ボタンをクリックして縮小、緑色の三角印をクリックして隣りの地図に切り替え


METAR-TAF: